createdAt,value
2022-11-09T00:01:08.905Z,16.02
2022-11-09T00:06:12.200Z,6.80
2022-11-09T00:11:16.443Z,7.40
2022-11-09T00:16:22.858Z,6.40
2022-11-09T00:21:26.468Z,7.43
2022-11-09T00:26:29.716Z,7.70
2022-11-09T00:31:34.314Z,7.55
2022-11-09T00:36:37.546Z,8.70
2022-11-09T00:41:40.841Z,6.55
2022-11-09T00:46:45.544Z,5.13
2022-11-09T00:51:49.497Z,10.98
2022-11-09T00:56:52.903Z,7.70
2022-11-09T01:01:57.968Z,4.82
2022-11-09T01:07:01.428Z,5.88
2022-11-09T01:12:04.992Z,11.13
2022-11-09T01:17:09.716Z,8.30
2022-11-09T01:22:12.943Z,5.57
2022-11-09T01:27:16.301Z,6.05
2022-11-09T01:32:20.955Z,6.43
2022-11-09T01:37:24.416Z,6.82
2022-11-09T01:42:28.203Z,8.25
2022-11-09T01:47:32.842Z,6.35
2022-11-09T01:52:39.694Z,7.55
2022-11-09T01:57:46.732Z,6.53
2022-11-09T02:02:54.414Z,9.05
2022-11-09T02:08:00.530Z,6.55
2022-11-09T02:13:04.681Z,8.93
2022-11-09T02:18:09.850Z,7.38
2022-11-09T02:23:14.890Z,7.80
2022-11-09T02:28:18.839Z,9.23
2022-11-09T02:33:22.496Z,7.28
2022-11-09T02:38:27.408Z,7.63
2022-11-09T02:43:34.688Z,7.35
2022-11-09T02:48:38.461Z,7.35
2022-11-09T02:53:43.168Z,7.15
2022-11-09T02:58:46.741Z,9.00
2022-11-09T03:03:53.103Z,5.95
2022-11-09T03:08:57.791Z,4.72
2022-11-09T03:14:01.090Z,3.50
2022-11-09T03:19:04.416Z,4.93
2022-11-09T03:24:09.544Z,3.88
2022-11-09T03:29:13.019Z,7.70
2022-11-09T03:34:17.556Z,4.45
2022-11-09T03:39:23.957Z,4.90
2022-11-09T03:44:28.745Z,6.18
2022-11-09T03:49:32.903Z,4.78
2022-11-09T03:54:38.440Z,5.57
2022-11-09T03:59:42.640Z,4.65
2022-11-09T04:04:53.057Z,4.68
2022-11-09T04:10:04.076Z,5.25
2022-11-09T04:15:09.803Z,5.35
2022-11-09T04:20:15.375Z,4.22
2022-11-09T04:25:21.710Z,5.57
2022-11-09T04:30:30.923Z,3.85
2022-11-09T04:35:37.841Z,3.97
2022-11-09T04:40:42.827Z,4.70
2022-11-09T04:45:47.644Z,6.45
2022-11-09T04:50:50.993Z,4.43
2022-11-09T04:55:57.502Z,3.35
2022-11-09T05:01:04.988Z,5.30
2022-11-09T05:06:23.648Z,2.63
2022-11-09T05:11:31.549Z,3.28
2022-11-09T05:16:36.674Z,5.35
2022-11-09T05:21:42.764Z,6.95
2022-11-09T05:26:48.649Z,6.45
2022-11-09T05:31:53.331Z,12.55
2022-11-09T05:37:03.304Z,5.07
2022-11-09T05:42:10.452Z,4.95
2022-11-09T05:47:13.682Z,6.32
2022-11-09T05:52:17.044Z,6.20
2022-11-09T05:57:21.715Z,5.22
2022-11-09T06:02:25.467Z,4.93
2022-11-09T06:07:30.148Z,6.45
2022-11-09T06:12:34.900Z,3.30
2022-11-09T06:17:38.165Z,2.10
2022-11-09T06:22:41.471Z,2.22
2022-11-09T06:27:46.156Z,4.95
2022-11-09T06:32:49.744Z,2.10
2022-11-09T06:37:57.272Z,4.03
2022-11-09T06:43:02.228Z,4.53
2022-11-09T06:48:06.043Z,3.70
2022-11-09T06:53:12.388Z,6.78
2022-11-09T06:58:17.659Z,4.38
2022-11-09T07:03:23.748Z,4.80
2022-11-09T07:08:27.375Z,5.50
2022-11-09T07:13:32.033Z,6.10
2022-11-09T07:19:02.366Z,6.97
2022-11-09T07:24:05.999Z,5.20
2022-11-09T07:29:10.860Z,7.53
2022-11-09T07:34:14.176Z,4.15
2022-11-09T07:39:17.520Z,12.40
2022-11-09T07:44:22.348Z,7.00
2022-11-09T07:49:25.849Z,7.03
2022-11-09T07:54:29.119Z,9.88
2022-11-09T07:59:34.162Z,5.35
2022-11-09T08:04:37.487Z,2.90
2022-11-09T08:09:40.781Z,1.70
2022-11-09T08:14:45.518Z,1.45
2022-11-09T08:19:48.770Z,0.52
2022-11-09T08:24:52.190Z,0.70
2022-11-09T08:29:56.840Z,0.70
2022-11-09T08:35:00.213Z,1.17
2022-11-09T08:40:03.548Z,0.63
2022-11-09T08:45:09.457Z,1.88
2022-11-09T08:50:14.539Z,4.10
2022-11-09T08:55:17.950Z,2.03
2022-11-09T09:00:22.839Z,5.18
2022-11-09T09:05:26.696Z,5.93
2022-11-09T09:10:30.137Z,3.92
2022-11-09T09:15:34.948Z,4.15
2022-11-09T09:20:39.329Z,5.68
2022-11-09T09:25:42.710Z,3.28
2022-11-09T09:30:47.498Z,3.40
2022-11-09T09:35:51.586Z,5.05
2022-11-09T09:40:59.936Z,4.22
2022-11-09T09:46:08.961Z,7.28
2022-11-09T09:51:17.923Z,5.13
2022-11-09T09:56:26.243Z,4.28
2022-11-09T10:01:38.998Z,6.72
2022-11-09T10:07:00.593Z,2.53
2022-11-09T10:12:19.805Z,2.35
2022-11-09T10:17:37.364Z,2.22
2022-11-09T10:22:50.107Z,1.92
2022-11-09T10:27:56.468Z,2.75
2022-11-09T10:33:14.049Z,4.15
2022-11-09T10:38:22.988Z,2.25
2022-11-09T10:43:26.469Z,3.38
2022-11-09T10:48:35.270Z,1.60
2022-11-09T10:53:38.630Z,4.15
2022-11-09T10:58:48.280Z,5.25
2022-11-09T11:03:54.663Z,2.72
2022-11-09T11:09:16.703Z,3.15
2022-11-09T11:14:24.118Z,3.35
2022-11-09T11:19:40.701Z,2.20
2022-11-09T11:24:48.218Z,2.00
2022-11-09T11:30:00.379Z,2.20
2022-11-09T11:35:13.478Z,1.83
2022-11-09T11:40:23.951Z,1.73
2022-11-09T11:45:40.548Z,1.10
2022-11-09T11:50:50.897Z,3.97
2022-11-09T11:56:25.711Z,0.85
2022-11-09T12:01:53.637Z,1.23
2022-11-09T12:07:17.458Z,1.27
2022-11-09T12:12:30.923Z,2.53
2022-11-09T12:17:46.336Z,1.73
2022-11-09T12:23:03.134Z,0.82
2022-11-09T12:28:28.860Z,1.00
2022-11-09T12:33:44.307Z,0.77
2022-11-09T12:38:59.248Z,3.50
2022-11-09T12:44:07.190Z,0.98
2022-11-09T12:49:23.841Z,0.73
2022-11-09T12:54:30.266Z,0.65
2022-11-09T12:59:48.498Z,1.33
2022-11-09T13:04:59.613Z,1.63
2022-11-09T13:10:07.363Z,1.38
2022-11-09T13:15:35.271Z,0.45
2022-11-09T13:20:55.292Z,0.70
2022-11-09T13:26:01.441Z,0.75
2022-11-09T13:31:05.087Z,1.30
2022-11-09T13:36:19.055Z,1.20
2022-11-09T13:41:45.055Z,0.82
2022-11-09T13:46:49.833Z,0.43
2022-11-09T13:51:54.242Z,0.80
2022-11-09T13:56:59.843Z,1.52
2022-11-09T14:02:04.667Z,1.00
2022-11-09T14:07:13.948Z,1.38
2022-11-09T14:12:29.245Z,0.90
2022-11-09T14:17:40.704Z,1.48
2022-11-09T14:22:44.302Z,1.40
2022-11-09T14:27:51.530Z,1.13
2022-11-09T14:32:56.393Z,1.30
2022-11-09T14:38:02.053Z,1.55
2022-11-09T14:43:15.562Z,0.85
2022-11-09T14:48:21.131Z,1.15
2022-11-09T14:53:29.580Z,1.02
2022-11-09T14:58:37.146Z,3.10
2022-11-09T15:03:40.361Z,1.30
2022-11-09T15:08:53.586Z,0.77
2022-11-09T15:13:58.906Z,0.88
2022-11-09T15:19:02.284Z,1.60
2022-11-09T15:24:15.376Z,1.48
2022-11-09T15:29:39.479Z,1.67
2022-11-09T15:34:44.711Z,2.08
2022-11-09T15:39:48.029Z,1.13
2022-11-09T15:44:57.868Z,1.20
2022-11-09T15:50:01.655Z,1.70
2022-11-09T15:55:05.281Z,4.65
2022-11-09T16:00:19.513Z,3.90
2022-11-09T16:05:27.819Z,3.45
2022-11-09T16:10:32.881Z,1.95
2022-11-09T16:15:38.774Z,1.13
2022-11-09T16:20:42.079Z,1.42
2022-11-09T16:25:46.092Z,1.35
2022-11-09T16:30:50.836Z,1.25
2022-11-09T16:35:55.059Z,1.98
2022-11-09T16:41:00.579Z,2.33
2022-11-09T16:46:05.878Z,2.13
2022-11-09T16:51:09.259Z,2.88
2022-11-09T16:56:12.674Z,4.15
2022-11-09T17:01:22.063Z,2.88
2022-11-09T17:06:26.957Z,5.38
2022-11-09T17:11:30.277Z,4.18
2022-11-09T17:16:35.355Z,8.18
2022-11-09T17:21:38.709Z,3.15
2022-11-09T17:26:42.070Z,3.28
2022-11-09T17:31:46.759Z,5.28
2022-11-09T17:37:03.677Z,2.53
2022-11-09T17:42:08.412Z,4.65
2022-11-09T17:47:13.105Z,3.25
2022-11-09T17:52:16.408Z,4.75
2022-11-09T17:57:19.761Z,3.42
2022-11-09T18:02:25.484Z,2.92
2022-11-09T18:07:29.948Z,4.00
2022-11-09T18:12:33.293Z,4.20
2022-11-09T18:17:38.064Z,3.47
2022-11-09T18:22:41.381Z,2.97
2022-11-09T18:27:44.819Z,3.70
2022-11-09T18:32:49.627Z,4.57
2022-11-09T18:37:53.070Z,6.10
2022-11-09T18:42:56.438Z,6.53
2022-11-09T18:48:01.111Z,5.32
2022-11-09T18:53:04.433Z,3.08
2022-11-09T18:58:10.915Z,3.53
2022-11-09T19:03:16.970Z,2.10
2022-11-09T19:08:40.571Z,2.40
2022-11-09T19:13:43.925Z,1.55
2022-11-09T19:18:48.788Z,3.38
2022-11-09T19:23:52.236Z,2.20
2022-11-09T19:28:55.619Z,2.78
2022-11-09T19:34:00.603Z,3.17
2022-11-09T19:39:04.488Z,6.63
2022-11-09T19:44:08.560Z,2.28
2022-11-09T19:49:13.513Z,1.13
2022-11-09T19:54:17.079Z,3.67
2022-11-09T19:59:21.338Z,3.10
2022-11-09T20:04:26.176Z,3.28
2022-11-09T20:09:31.891Z,1.77
2022-11-09T20:14:35.393Z,1.80
2022-11-09T20:19:40.123Z,2.90
2022-11-09T20:24:44.396Z,1.02
2022-11-09T20:29:47.886Z,2.05
2022-11-09T20:34:52.695Z,1.40
2022-11-09T20:39:56.991Z,1.08
2022-11-09T20:45:00.387Z,1.65
2022-11-09T20:50:05.714Z,4.80
2022-11-09T20:55:10.640Z,3.38
2022-11-09T21:00:14.911Z,1.65
2022-11-09T21:05:19.758Z,1.33
2022-11-09T21:10:23.150Z,1.45
2022-11-09T21:15:26.399Z,3.80
2022-11-09T21:20:31.138Z,1.73
2022-11-09T21:25:55.611Z,2.50
2022-11-09T21:31:02.143Z,4.05
2022-11-09T21:36:11.016Z,4.95
2022-11-09T21:41:43.214Z,2.38
2022-11-09T21:46:48.520Z,2.00
2022-11-09T21:51:53.236Z,3.95
2022-11-09T21:56:56.900Z,3.05
2022-11-09T22:02:00.227Z,9.20
2022-11-09T22:07:05.991Z,2.67
2022-11-09T22:12:26.991Z,2.75
2022-11-09T22:17:30.336Z,1.67
2022-11-09T22:22:36.366Z,0.90
2022-11-09T22:27:39.606Z,0.65
2022-11-09T22:32:42.909Z,1.33
2022-11-09T22:37:47.656Z,0.90
2022-11-09T22:42:56.684Z,3.15
2022-11-09T22:48:00.953Z,1.00
2022-11-09T22:53:05.783Z,1.13
2022-11-09T22:58:09.148Z,1.35
2022-11-09T23:03:12.583Z,6.10
2022-11-09T23:08:17.288Z,1.60
2022-11-09T23:13:20.938Z,2.42
2022-11-09T23:18:41.919Z,3.35
2022-11-09T23:23:46.969Z,2.15
2022-11-09T23:28:50.300Z,4.53
2022-11-09T23:33:54.680Z,1.92
2022-11-09T23:39:00.019Z,1.58
2022-11-09T23:44:03.393Z,2.13
2022-11-09T23:49:06.667Z,3.55
2022-11-09T23:54:11.394Z,2.90
2022-11-09T23:59:14.676Z,1.23
